createdAt,value
2022-08-22T00:04:43.862Z,7.05
2022-08-22T00:09:59.687Z,7.90
2022-08-22T00:15:16.400Z,7.18
2022-08-22T00:20:45.478Z,6.90
2022-08-22T00:25:56.082Z,7.78
2022-08-22T00:31:09.215Z,6.72
2022-08-22T00:36:25.863Z,8.00
2022-08-22T00:41:51.045Z,7.95
2022-08-22T00:47:08.773Z,8.82
2022-08-22T00:53:01.092Z,8.15
2022-08-22T00:58:30.251Z,8.05
2022-08-22T01:03:59.850Z,7.60
2022-08-22T01:09:10.994Z,7.63
2022-08-22T01:14:41.991Z,7.25
2022-08-22T01:20:18.185Z,7.10
2022-08-22T01:25:58.603Z,6.63
2022-08-22T01:31:42.576Z,6.65
2022-08-22T01:37:22.301Z,6.50
2022-08-22T01:43:00.361Z,6.80
2022-08-22T01:48:12.619Z,7.88
2022-08-22T01:53:25.025Z,7.30
2022-08-22T01:58:32.236Z,8.20
2022-08-22T02:03:44.853Z,8.48
2022-08-22T02:09:00.347Z,8.18
2022-08-22T02:14:15.580Z,8.40
2022-08-22T02:19:28.708Z,7.57
2022-08-22T02:24:48.635Z,7.80
2022-08-22T02:30:01.130Z,8.07
2022-08-22T02:35:11.483Z,7.07
2022-08-22T02:40:27.488Z,7.55
2022-08-22T02:45:39.825Z,6.97
2022-08-22T02:50:53.705Z,7.40
2022-08-22T02:56:04.789Z,6.45
2022-08-22T03:01:22.699Z,6.43
2022-08-22T03:06:40.360Z,6.20
2022-08-22T03:11:49.469Z,5.90
2022-08-22T03:16:59.730Z,6.18
2022-08-22T03:22:09.834Z,5.45
2022-08-22T03:27:32.919Z,5.68
2022-08-22T03:32:54.882Z,6.45
2022-08-22T03:38:15.761Z,6.35
2022-08-22T03:43:37.408Z,6.55
2022-08-22T03:49:11.710Z,7.32
2022-08-22T03:54:39.438Z,6.22
2022-08-22T04:00:15.744Z,5.72
2022-08-22T04:05:34.624Z,5.63
2022-08-22T04:11:02.528Z,5.65
2022-08-22T04:16:55.044Z,5.90
2022-08-22T04:22:19.314Z,6.13
2022-08-22T04:27:32.241Z,5.97
2022-08-22T04:32:43.941Z,5.90
2022-08-22T04:37:54.672Z,5.35
2022-08-22T04:43:03.535Z,5.57
2022-08-22T04:48:14.104Z,5.10
2022-08-22T04:53:40.086Z,5.45
2022-08-22T04:58:56.517Z,6.18
2022-08-22T05:04:04.950Z,6.25
2022-08-22T05:09:21.031Z,7.22
2022-08-22T05:14:34.037Z,6.90
2022-08-22T05:19:42.909Z,6.88
2022-08-22T05:24:53.455Z,7.10
2022-08-22T05:30:03.564Z,5.63
2022-08-22T05:35:10.830Z,6.00
2022-08-22T05:40:21.641Z,5.55
2022-08-22T05:45:27.575Z,5.63
2022-08-22T05:50:37.973Z,4.80
2022-08-22T05:55:52.567Z,4.65
2022-08-22T06:01:08.035Z,5.28
2022-08-22T06:06:18.194Z,5.57
2022-08-22T06:11:34.083Z,5.95
2022-08-22T06:16:47.391Z,7.35
2022-08-22T06:21:54.282Z,7.00
2022-08-22T06:27:06.415Z,7.32
2022-08-22T06:32:15.544Z,9.15
2022-08-22T06:37:26.790Z,10.35
2022-08-22T06:42:38.952Z,8.55
2022-08-22T06:47:49.839Z,9.40
2022-08-22T06:53:01.115Z,9.48
2022-08-22T06:58:12.709Z,9.00
2022-08-22T07:03:24.693Z,9.32
2022-08-22T07:08:38.580Z,10.05
2022-08-22T07:13:52.768Z,9.95
2022-08-22T07:18:57.323Z,10.73
2022-08-22T07:24:04.327Z,10.90
2022-08-22T07:29:15.142Z,9.95
2022-08-22T07:34:44.881Z,11.35
2022-08-22T07:39:55.440Z,10.40
2022-08-22T07:45:08.448Z,10.70
2022-08-22T07:50:20.069Z,9.90
2022-08-22T07:55:26.916Z,11.38
2022-08-22T08:00:34.042Z,10.07
2022-08-22T08:05:40.074Z,10.32
2022-08-22T08:10:44.439Z,10.95
2022-08-22T08:15:51.357Z,11.00
2022-08-22T08:20:59.494Z,10.75
2022-08-22T08:26:10.908Z,11.32
2022-08-22T08:31:24.819Z,10.18
2022-08-22T08:36:38.144Z,9.70
2022-08-22T08:42:07.329Z,9.60
2022-08-22T08:52:44.727Z,9.13
2022-08-22T08:58:06.635Z,9.73
2022-08-22T09:03:27.440Z,10.27
2022-08-22T09:14:31.853Z,9.77
2022-08-22T09:20:17.577Z,9.27
2022-08-22T09:25:28.697Z,8.65
2022-08-22T09:36:35.135Z,8.77
2022-08-22T09:41:45.004Z,7.95
2022-08-22T09:46:57.757Z,8.65
2022-08-22T09:52:15.274Z,8.85
2022-08-22T09:57:30.733Z,9.10
2022-08-22T10:02:43.708Z,8.68
2022-08-22T10:08:11.494Z,9.55
2022-08-22T10:13:27.847Z,8.45
2022-08-22T10:18:44.053Z,9.48
2022-08-22T10:24:03.168Z,9.10
2022-08-22T10:29:39.973Z,8.43
2022-08-22T10:34:49.136Z,8.85
2022-08-22T10:40:04.649Z,6.85
2022-08-22T10:45:23.672Z,7.45
2022-08-22T10:50:44.228Z,7.97
2022-08-22T10:55:55.362Z,8.30
2022-08-22T11:01:37.125Z,7.13
2022-08-22T11:06:32.096Z,7.50
2022-08-22T11:11:43.968Z,8.30
2022-08-22T11:16:58.017Z,8.30
2022-08-22T11:22:14.751Z,7.47
2022-08-22T11:27:35.316Z,9.27
2022-08-22T11:33:33.809Z,9.25
2022-08-22T11:39:01.148Z,5.20
2022-08-22T11:44:13.809Z,5.53
2022-08-22T11:49:34.262Z,5.22
2022-08-22T11:55:05.548Z,6.00
2022-08-22T12:00:24.953Z,7.50
2022-08-22T12:05:34.409Z,8.15
2022-08-22T12:10:44.414Z,8.20
2022-08-22T12:15:57.973Z,8.27
2022-08-22T12:21:28.102Z,10.13
2022-08-22T12:26:44.284Z,8.85
2022-08-22T12:32:34.002Z,9.27
2022-08-22T12:37:52.299Z,8.65
2022-08-22T12:43:26.656Z,9.85
2022-08-22T12:49:01.400Z,9.43
2022-08-22T12:54:52.299Z,8.85
2022-08-22T13:00:01.750Z,9.55
2022-08-22T13:05:19.994Z,8.80
2022-08-22T13:10:45.876Z,8.17
2022-08-22T13:16:00.633Z,7.65
2022-08-22T13:21:14.498Z,7.82
2022-08-22T13:26:31.756Z,7.22
2022-08-22T13:31:42.329Z,7.05
2022-08-22T13:36:53.059Z,7.22
2022-08-22T13:42:00.630Z,6.60
2022-08-22T13:47:14.219Z,6.10
2022-08-22T13:52:29.825Z,6.05
2022-08-22T13:57:39.706Z,6.57
2022-08-22T14:03:00.259Z,6.20
2022-08-22T14:08:18.655Z,7.15
2022-08-22T14:13:41.237Z,6.97
2022-08-22T14:18:53.850Z,6.47
2022-08-22T14:24:12.859Z,8.23
2022-08-22T14:29:19.465Z,8.25
2022-08-22T14:34:24.551Z,7.93
2022-08-22T14:39:38.119Z,7.47
2022-08-22T14:45:01.485Z,7.78
2022-08-22T14:50:31.828Z,6.88
2022-08-22T14:55:40.093Z,5.57
2022-08-22T15:00:51.021Z,4.68
2022-08-22T15:06:00.565Z,4.47
2022-08-22T15:11:22.054Z,4.20
2022-08-22T15:16:33.277Z,3.85
2022-08-22T15:21:41.531Z,5.70
2022-08-22T15:26:55.321Z,6.30
2022-08-22T15:32:03.908Z,6.50
2022-08-22T15:37:29.789Z,5.47
2022-08-22T15:42:40.619Z,7.50
2022-08-22T15:47:52.142Z,8.00
2022-08-22T15:53:17.885Z,6.93
2022-08-22T15:58:25.385Z,6.30
2022-08-22T16:03:32.903Z,6.60
2022-08-22T16:08:49.345Z,6.78
2022-08-22T16:14:24.787Z,8.00
2022-08-22T16:19:31.020Z,7.82
2022-08-22T16:25:14.386Z,7.45
2022-08-22T16:30:36.765Z,7.07
2022-08-22T16:36:26.163Z,6.18
2022-08-22T16:41:36.273Z,6.68
2022-08-22T16:46:46.959Z,5.18
2022-08-22T16:52:24.003Z,6.07
2022-08-22T16:57:36.001Z,6.05
2022-08-22T17:03:03.896Z,5.80
2022-08-22T17:08:22.313Z,5.70
2022-08-22T17:13:42.157Z,5.83
2022-08-22T17:19:10.229Z,6.03
2022-08-22T17:24:32.019Z,6.07
2022-08-22T17:29:53.842Z,5.70
2022-08-22T17:35:15.546Z,6.35
2022-08-22T17:40:38.149Z,6.47
2022-08-22T17:45:56.618Z,6.25
2022-08-22T17:51:12.118Z,6.10
2022-08-22T17:56:23.855Z,5.93
2022-08-22T18:01:44.266Z,5.68
2022-08-22T18:06:56.712Z,7.10
2022-08-22T18:12:08.658Z,5.97
2022-08-22T18:17:21.537Z,5.60
2022-08-22T18:22:31.934Z,6.03
2022-08-22T18:32:48.591Z,5.97
2022-08-22T18:38:03.931Z,5.97
2022-08-22T18:43:36.116Z,5.65
2022-08-22T18:49:11.620Z,5.20
2022-08-22T18:54:42.032Z,5.68
2022-08-22T19:00:00.879Z,5.95
2022-08-22T19:05:21.183Z,6.38
2022-08-22T19:10:50.629Z,5.05
2022-08-22T19:16:06.170Z,4.95
2022-08-22T19:21:52.752Z,5.68
2022-08-22T19:27:31.417Z,5.85
2022-08-22T19:33:00.556Z,6.25
2022-08-22T19:38:07.725Z,5.70
2022-08-22T19:43:29.894Z,5.25
2022-08-22T19:48:44.753Z,5.97
2022-08-22T19:53:57.055Z,7.68
2022-08-22T19:59:16.653Z,7.82
2022-08-22T20:04:40.957Z,6.47
2022-08-22T20:09:55.794Z,7.47
2022-08-22T20:15:16.444Z,6.95
2022-08-22T20:20:53.968Z,6.72
2022-08-22T20:25:59.757Z,7.22
2022-08-22T20:31:10.743Z,7.50
2022-08-22T20:36:28.070Z,6.63
2022-08-22T20:41:38.697Z,6.40
2022-08-22T20:46:55.003Z,6.57
2022-08-22T20:52:02.123Z,6.53
2022-08-22T20:57:16.227Z,7.72
2022-08-22T21:02:25.225Z,7.57
2022-08-22T21:12:34.278Z,7.90
2022-08-22T21:17:39.972Z,7.68
2022-08-22T21:22:44.338Z,7.85
2022-08-22T21:27:49.515Z,7.63
2022-08-22T21:32:56.607Z,8.50
2022-08-22T21:38:02.578Z,8.52
2022-08-22T21:43:11.681Z,8.65
2022-08-22T21:48:40.055Z,9.23
2022-08-22T21:53:44.076Z,9.88
2022-08-22T21:58:49.342Z,9.95
2022-08-22T22:03:58.344Z,10.32
2022-08-22T22:09:02.404Z,9.32
2022-08-22T22:14:06.958Z,10.32
2022-08-22T22:19:12.517Z,8.35
2022-08-22T22:24:16.750Z,9.18
2022-08-22T22:29:21.049Z,9.43
2022-08-22T22:34:26.764Z,9.32
2022-08-22T22:39:30.766Z,11.35
2022-08-22T22:44:35.272Z,9.70
2022-08-22T22:49:40.654Z,9.93
2022-08-22T22:54:45.684Z,11.27
2022-08-22T22:59:49.700Z,10.07
2022-08-22T23:04:57.229Z,10.50
2022-08-22T23:10:02.338Z,10.80
2022-08-22T23:15:07.408Z,10.77
2022-08-22T23:20:13.087Z,11.70
2022-08-22T23:25:17.328Z,10.13
2022-08-22T23:30:21.772Z,10.90
2022-08-22T23:35:27.204Z,10.50
2022-08-22T23:40:31.368Z,9.73
2022-08-22T23:45:35.390Z,8.93
2022-08-22T23:50:41.002Z,7.55
2022-08-22T23:55:44.979Z,4.70
